Dati Storici

Data ora Umidita' aria (%) Temperatura aria (°C) Rad globale (W/m²) Gonioanemometro (°) Tacoanemometro (m/s) Pioggia (mm)
10-10-2012 00:00 76.1 % 15.635 3.71 9.79 0.371 0
09-10-2012 23:50 76.5 % 15.711 4.03 39.691 1.122 0
09-10-2012 23:40 77.3 % 15.562 3.98 1.812 0.416 0
09-10-2012 23:30 77.4 % 15.246 2.865 329.52 0.249 0
09-10-2012 23:20 77.4 % 15.121 2.339 11.624 0.511 0
09-10-2012 23:10 77.4 % 15.138 1.724 287.403 0.271 0
09-10-2012 23:00 77.1 % 15.169 2.006 20.767 0.507 0
09-10-2012 22:50 76.6 % 15.328 1.993 39.783 0.542 0
09-10-2012 22:40 76.6 % 15.537 1.955 352.076 0.319 0
09-10-2012 22:30 77.2 % 15.467 1.621 64.744 0.397 0
09-10-2012 22:20 77.3 % 15.388 1.801 349.313 0.099 0
09-10-2012 22:10 78.2 % 15.094 1.506 340.648 0.736 0
09-10-2012 22:00 77.2 % 15.188 2.48 90.708 0.138 0
09-10-2012 21:50 75.9 % 15.188 2.121 108.746 0.012 0
09-10-2012 21:40 74.1 % 15.521 2.095 132.832 0.31 0
09-10-2012 21:30 73.6 % 15.917 2.544 93.464 0.49 0
09-10-2012 21:20 72.7 % 16.073 2.916 114.663 0.698 0
09-10-2012 21:10 72.9 % 16.051 3.3 41.316 0.764 0
09-10-2012 21:00 72.7 % 15.911 2.406 55.315 0.294 0
09-10-2012 20:50 72.6 % 16.129 2.714 121.907 0.67 0

I dati sono presentati in modo automatico a scopo informativo. In seguito a verifica i dati possono subire modifiche o essere invalidati e non riportati negli archivi definitivi.